sensor_id;sensor_type;location;lat;lon;timestamp;temperature;humidity
45315;SHT31;31051;51.540;5.852;2023-05-16T00:10:50;9.7;77.0
45315;SHT31;31051;51.540;5.852;2023-05-16T00:23:49;9.6;76.3
45315;SHT31;31051;51.540;5.852;2023-05-16T00:36:48;9.5;77.0
45315;SHT31;31051;51.540;5.852;2023-05-16T00:49:48;9.6;76.3
45315;SHT31;31051;51.540;5.852;2023-05-16T01:02:47;9.5;75.8
45315;SHT31;31051;51.540;5.852;2023-05-16T01:15:46;9.4;76.1
45315;SHT31;31051;51.540;5.852;2023-05-16T01:28:45;9.3;76.4
45315;SHT31;31051;51.540;5.852;2023-05-16T01:41:45;9.1;77.3
45315;SHT31;31051;51.540;5.852;2023-05-16T01:54:44;8.8;78.4
45315;SHT31;31051;51.540;5.852;2023-05-16T02:07:43;8.6;78.8
45315;SHT31;31051;51.540;5.852;2023-05-16T02:20:43;8.4;80.1
45315;SHT31;31051;51.540;5.852;2023-05-16T02:33:42;8.2;80.6
45315;SHT31;31051;51.540;5.852;2023-05-16T02:46:41;7.9;80.1
45315;SHT31;31051;51.540;5.852;2023-05-16T02:59:40;7.7;83.4
45315;SHT31;31051;51.540;5.852;2023-05-16T03:12:40;7.5;83.0
45315;SHT31;31051;51.540;5.852;2023-05-16T03:25:39;7.4;84.9
45315;SHT31;31051;51.540;5.852;2023-05-16T03:38:38;7.4;85.3
45315;SHT31;31051;51.540;5.852;2023-05-16T03:51:37;7.4;85.5
45315;SHT31;31051;51.540;5.852;2023-05-16T04:04:37;7.6;84.4
45315;SHT31;31051;51.540;5.852;2023-05-16T04:17:36;7.7;83.5
45315;SHT31;31051;51.540;5.852;2023-05-16T04:30:35;7.6;83.3
45315;SHT31;31051;51.540;5.852;2023-05-16T04:43:34;7.9;83.3
45315;SHT31;31051;51.540;5.852;2023-05-16T04:56:34;8.0;81.9
45315;SHT31;31051;51.540;5.852;2023-05-16T05:09:33;7.9;82.0
45315;SHT31;31051;51.540;5.852;2023-05-16T05:22:32;7.8;82.5
45315;SHT31;31051;51.540;5.852;2023-05-16T05:35:31;8.1;82.4
45315;SHT31;31051;51.540;5.852;2023-05-16T05:48:31;8.3;80.5
45315;SHT31;31051;51.540;5.852;2023-05-16T06:01:30;8.8;78.8
45315;SHT31;31051;51.540;5.852;2023-05-16T06:14:29;9.3;76.4
45315;SHT31;31051;51.540;5.852;2023-05-16T06:27:28;9.8;74.3
45315;SHT31;31051;51.540;5.852;2023-05-16T06:40:28;10.3;71.1
45315;SHT31;31051;51.540;5.852;2023-05-16T06:53:27;10.8;69.5
45315;SHT31;31051;51.540;5.852;2023-05-16T07:06:26;11.0;69.0
45315;SHT31;31051;51.540;5.852;2023-05-16T07:19:26;11.1;67.5
45315;SHT31;31051;51.540;5.852;2023-05-16T07:32:25;11.5;66.5
45315;SHT31;31051;51.540;5.852;2023-05-16T07:45:24;11.6;65.6
45315;SHT31;31051;51.540;5.852;2023-05-16T07:58:23;11.5;65.0
45315;SHT31;31051;51.540;5.852;2023-05-16T08:11:23;12.3;59.9
45315;SHT31;31051;51.540;5.852;2023-05-16T08:24:22;12.4;59.1
45315;SHT31;31051;51.540;5.852;2023-05-16T08:37:21;13.6;56.0
45315;SHT31;31051;51.540;5.852;2023-05-16T08:50:21;12.4;60.5
45315;SHT31;31051;51.540;5.852;2023-05-16T09:03:20;12.3;59.0
45315;SHT31;31051;51.540;5.852;2023-05-16T09:16:19;13.8;54.3
45315;SHT31;31051;51.540;5.852;2023-05-16T09:29:19;13.5;53.8
45315;SHT31;31051;51.540;5.852;2023-05-16T09:42:18;13.9;52.6
45315;SHT31;31051;51.540;5.852;2023-05-16T09:55:18;13.7;55.4
45315;SHT31;31051;51.540;5.852;2023-05-16T10:08:17;13.0;56.4
45315;SHT31;31051;51.540;5.852;2023-05-16T10:21:16;14.0;56.0
45315;SHT31;31051;51.540;5.852;2023-05-16T10:34:16;14.7;48.2
45315;SHT31;31051;51.540;5.852;2023-05-16T10:47:15;14.9;49.5
45315;SHT31;31051;51.540;5.852;2023-05-16T11:00:14;14.6;53.8
45315;SHT31;31051;51.540;5.852;2023-05-16T11:13:13;14.9;52.4
45315;SHT31;31051;51.540;5.852;2023-05-16T11:26:02;15.6;54.5
45315;SHT31;31051;51.540;5.852;2023-05-16T11:39:00;16.2;48.0
45315;SHT31;31051;51.540;5.852;2023-05-16T11:51:50;15.9;43.5
45315;SHT31;31051;51.540;5.852;2023-05-16T12:04:49;15.6;45.0
45315;SHT31;31051;51.540;5.852;2023-05-16T12:17:48;15.2;51.0
45315;SHT31;31051;51.540;5.852;2023-05-16T12:30:48;14.8;48.3
45315;SHT31;31051;51.540;5.852;2023-05-16T12:43:47;15.3;47.2
45315;SHT31;31051;51.540;5.852;2023-05-16T12:56:46;15.2;48.2
45315;SHT31;31051;51.540;5.852;2023-05-16T13:09:46;14.7;53.9
45315;SHT31;31051;51.540;5.852;2023-05-16T13:22:45;14.3;53.8
45315;SHT31;31051;51.540;5.852;2023-05-16T13:35:44;14.0;55.4
45315;SHT31;31051;51.540;5.852;2023-05-16T13:48:44;13.8;51.3
45315;SHT31;31051;51.540;5.852;2023-05-16T14:01:43;14.0;52.1
45315;SHT31;31051;51.540;5.852;2023-05-16T14:14:42;14.0;53.4
45315;SHT31;31051;51.540;5.852;2023-05-16T14:27:42;14.2;52.9
45315;SHT31;31051;51.540;5.852;2023-05-16T14:40:41;14.3;55.0
45315;SHT31;31051;51.540;5.852;2023-05-16T14:53:40;13.8;56.3
45315;SHT31;31051;51.540;5.852;2023-05-16T15:06:40;13.5;56.3
45315;SHT31;31051;51.540;5.852;2023-05-16T15:19:39;13.7;57.2
45315;SHT31;31051;51.540;5.852;2023-05-16T15:32:38;13.6;56.0
45315;SHT31;31051;51.540;5.852;2023-05-16T15:45:38;13.6;56.6
45315;SHT31;31051;51.540;5.852;2023-05-16T15:58:37;13.7;59.0
45315;SHT31;31051;51.540;5.852;2023-05-16T16:11:36;13.8;58.0
45315;SHT31;31051;51.540;5.852;2023-05-16T16:24:36;13.7;58.4
45315;SHT31;31051;51.540;5.852;2023-05-16T16:37:35;13.4;59.6
45315;SHT31;31051;51.540;5.852;2023-05-16T16:50:34;13.5;59.4
45315;SHT31;31051;51.540;5.852;2023-05-16T17:03:34;13.4;60.1
45315;SHT31;31051;51.540;5.852;2023-05-16T17:16:33;13.2;61.5
45315;SHT31;31051;51.540;5.852;2023-05-16T17:29:32;13.1;61.5
45315;SHT31;31051;51.540;5.852;2023-05-16T17:42:32;13.2;62.5
45315;SHT31;31051;51.540;5.852;2023-05-16T17:55:31;13.2;63.2
45315;SHT31;31051;51.540;5.852;2023-05-16T18:08:30;12.8;63.0
45315;SHT31;31051;51.540;5.852;2023-05-16T18:21:30;12.4;65.7
45315;SHT31;31051;51.540;5.852;2023-05-16T18:34:29;12.2;66.2
45315;SHT31;31051;51.540;5.852;2023-05-16T18:47:28;12.0;67.5
45315;SHT31;31051;51.540;5.852;2023-05-16T19:00:28;11.9;68.4
45315;SHT31;31051;51.540;5.852;2023-05-16T19:13:27;11.7;68.8
45315;SHT31;31051;51.540;5.852;2023-05-16T19:26:26;11.4;69.1
45315;SHT31;31051;51.540;5.852;2023-05-16T19:39:26;11.2;70.8
45315;SHT31;31051;51.540;5.852;2023-05-16T19:52:25;10.9;73.1
45315;SHT31;31051;51.540;5.852;2023-05-16T20:05:24;10.8;73.8
45315;SHT31;31051;51.540;5.852;2023-05-16T20:18:24;10.7;74.8
45315;SHT31;31051;51.540;5.852;2023-05-16T20:31:23;10.4;75.2
45315;SHT31;31051;51.540;5.852;2023-05-16T20:44:22;9.9;75.6
45315;SHT31;31051;51.540;5.852;2023-05-16T20:57:21;9.9;77.0
45315;SHT31;31051;51.540;5.852;2023-05-16T21:10:21;9.6;77.7
45315;SHT31;31051;51.540;5.852;2023-05-16T21:23:20;8.7;79.9
45315;SHT31;31051;51.540;5.852;2023-05-16T21:36:19;8.3;81.1
45315;SHT31;31051;51.540;5.852;2023-05-16T21:49:19;7.8;81.2
45315;SHT31;31051;51.540;5.852;2023-05-16T22:02:18;8.0;84.8
45315;SHT31;31051;51.540;5.852;2023-05-16T22:15:17;8.0;84.4
45315;SHT31;31051;51.540;5.852;2023-05-16T22:28:16;7.9;84.3
45315;SHT31;31051;51.540;5.852;2023-05-16T22:41:16;7.9;84.9
45315;SHT31;31051;51.540;5.852;2023-05-16T22:54:15;7.8;85.2
45315;SHT31;31051;51.540;5.852;2023-05-16T23:07:14;7.8;85.6
45315;SHT31;31051;51.540;5.852;2023-05-16T23:20:13;7.8;85.2
45315;SHT31;31051;51.540;5.852;2023-05-16T23:33:13;7.2;83.6
45315;SHT31;31051;51.540;5.852;2023-05-16T23:46:12;6.8;85.2
45315;SHT31;31051;51.540;5.852;2023-05-16T23:59:11;6.5;85.6
